createdAt,value
2023-05-05T00:01:22.166Z,10.82
2023-05-05T00:03:47.530Z,10.91
2023-05-05T00:06:11.217Z,10.80
2023-05-05T00:08:35.172Z,10.72
2023-05-05T00:10:58.846Z,10.78
2023-05-05T00:13:23.206Z,10.78
2023-05-05T00:15:48.867Z,10.76
2023-05-05T00:18:13.671Z,10.74
2023-05-05T00:20:38.747Z,10.83
2023-05-05T00:23:02.372Z,10.47
2023-05-05T00:25:25.931Z,10.52
2023-05-05T00:27:49.516Z,10.68
2023-05-05T00:30:14.563Z,10.68
2023-05-05T00:32:38.268Z,10.65
2023-05-05T00:35:01.817Z,10.64
2023-05-05T00:37:27.139Z,10.52
2023-05-05T00:39:50.872Z,10.62
2023-05-05T00:42:14.564Z,10.64
2023-05-05T00:44:41.829Z,10.47
2023-05-05T00:47:05.546Z,10.57
2023-05-05T00:49:29.182Z,10.60
2023-05-05T00:51:52.796Z,10.54
2023-05-05T00:54:17.841Z,10.55
2023-05-05T00:56:41.780Z,10.38
2023-05-05T00:59:05.421Z,10.39
2023-05-05T01:01:29.139Z,10.35
2023-05-05T01:03:53.035Z,10.19
2023-05-05T01:06:36.625Z,10.31
2023-05-05T01:09:10.010Z,10.31
2023-05-05T01:11:45.823Z,10.40
2023-05-05T01:14:16.912Z,10.23
2023-05-05T01:16:47.538Z,10.08
2023-05-05T01:19:41.625Z,10.10
2023-05-05T01:22:10.690Z,10.06
2023-05-05T01:24:52.092Z,10.04
2023-05-05T01:27:59.818Z,10.13
2023-05-05T01:30:45.300Z,10.09
2023-05-05T01:33:16.104Z,10.05
2023-05-05T01:35:45.238Z,9.95
2023-05-05T01:38:16.179Z,10.01
2023-05-05T01:40:46.214Z,9.98
2023-05-05T01:43:13.018Z,9.88
2023-05-05T01:45:40.861Z,10.00
2023-05-05T01:48:07.437Z,9.81
2023-05-05T01:50:33.501Z,9.77
2023-05-05T01:52:58.957Z,9.93
2023-05-05T01:55:26.367Z,9.89
2023-05-05T01:57:51.541Z,9.74
2023-05-05T02:00:17.998Z,9.79
2023-05-05T02:02:43.718Z,9.93
2023-05-05T02:05:08.830Z,9.92
2023-05-05T02:07:36.037Z,9.89
2023-05-05T02:10:00.871Z,9.83
2023-05-05T02:12:24.642Z,9.73
2023-05-05T02:14:49.157Z,9.78
2023-05-05T02:17:15.026Z,9.61
2023-05-05T02:19:43.353Z,9.54
2023-05-05T02:22:07.455Z,9.50
2023-05-05T02:24:32.496Z,9.59
2023-05-05T02:26:57.709Z,9.54
2023-05-05T02:29:28.732Z,9.53
2023-05-05T02:31:56.991Z,9.48
2023-05-05T02:34:30.053Z,9.36
2023-05-05T02:36:57.227Z,9.30
2023-05-05T02:39:27.420Z,9.18
2023-05-05T02:41:54.468Z,9.16
2023-05-05T02:44:24.733Z,9.19
2023-05-05T02:46:49.289Z,9.16
2023-05-05T02:49:12.965Z,9.07
2023-05-05T02:51:37.164Z,9.26
2023-05-05T02:54:06.705Z,9.03
2023-05-05T02:56:41.802Z,9.09
2023-05-05T02:59:16.424Z,8.93
2023-05-05T03:01:56.099Z,9.03
2023-05-05T03:04:28.888Z,8.94
2023-05-05T03:06:58.573Z,8.98
2023-05-05T03:09:32.440Z,8.90
2023-05-05T03:12:05.075Z,8.99
2023-05-05T03:14:42.547Z,8.92
2023-05-05T03:17:13.016Z,8.82
2023-05-05T03:19:38.484Z,8.76
2023-05-05T03:22:04.405Z,8.68
2023-05-05T03:24:29.074Z,8.67
2023-05-05T03:27:05.125Z,8.64
2023-05-05T03:29:32.651Z,8.69
2023-05-05T03:31:57.729Z,8.68
2023-05-05T03:34:22.855Z,8.62
2023-05-05T03:36:46.485Z,8.64
2023-05-05T03:39:12.222Z,8.63
2023-05-05T03:41:36.201Z,8.62
2023-05-05T03:44:01.309Z,8.55
2023-05-05T03:46:25.028Z,8.61
2023-05-05T03:48:51.597Z,8.66
2023-05-05T03:51:15.599Z,8.61
2023-05-05T03:53:40.091Z,8.36
2023-05-05T03:56:04.638Z,8.43
2023-05-05T03:58:28.294Z,8.41
2023-05-05T04:00:51.859Z,8.40
2023-05-05T04:03:17.389Z,8.38
2023-05-05T04:05:42.582Z,8.51
2023-05-05T04:08:06.713Z,8.43
2023-05-05T04:10:30.652Z,8.52
2023-05-05T04:12:54.750Z,8.55
2023-05-05T04:15:18.625Z,8.59
2023-05-05T04:17:42.918Z,8.56
2023-05-05T04:20:08.412Z,8.49
2023-05-05T04:22:34.041Z,8.65
2023-05-05T04:24:57.926Z,8.56
2023-05-05T04:27:21.674Z,8.64
2023-05-05T04:29:45.887Z,8.60
2023-05-05T04:32:09.698Z,8.55
2023-05-05T04:34:33.308Z,8.70
2023-05-05T04:36:57.511Z,8.68
2023-05-05T04:39:22.574Z,8.84
2023-05-05T04:41:46.877Z,8.75
2023-05-05T04:44:10.881Z,8.89
2023-05-05T04:46:34.969Z,9.00
2023-05-05T04:49:00.806Z,9.07
2023-05-05T04:51:24.678Z,8.87
2023-05-05T04:53:48.249Z,8.95
2023-05-05T04:56:13.265Z,9.13
2023-05-05T04:58:36.824Z,9.14
2023-05-05T05:01:00.648Z,9.27
2023-05-05T05:03:24.449Z,9.27
2023-05-05T05:05:48.360Z,9.38
2023-05-05T05:08:11.935Z,9.48
2023-05-05T05:10:37.323Z,9.39
2023-05-05T05:13:02.306Z,9.54
2023-05-05T05:15:26.431Z,9.68
2023-05-05T05:17:50.332Z,9.66
2023-05-05T05:20:14.295Z,9.79
2023-05-05T05:22:39.029Z,9.77
2023-05-05T05:25:07.395Z,10.02
2023-05-05T05:27:31.065Z,10.04
2023-05-05T05:29:56.546Z,9.98
2023-05-05T05:32:21.365Z,10.10
2023-05-05T05:34:45.697Z,10.17
2023-05-05T05:37:09.668Z,10.28
2023-05-05T05:39:33.666Z,10.54
2023-05-05T05:41:57.594Z,10.74
2023-05-05T05:44:21.896Z,10.78
2023-05-05T05:46:46.860Z,11.00
2023-05-05T05:49:11.731Z,10.85
2023-05-05T05:51:35.339Z,11.20
2023-05-05T05:53:59.108Z,10.97
2023-05-05T05:56:22.910Z,10.83
2023-05-05T05:58:48.686Z,11.01
2023-05-05T06:01:12.758Z,11.23
2023-05-05T06:03:37.971Z,11.21
2023-05-05T06:06:01.672Z,11.58
2023-05-05T06:08:26.476Z,11.96
2023-05-05T06:10:51.522Z,12.38
2023-05-05T06:13:16.978Z,12.28
2023-05-05T06:15:43.480Z,12.10
2023-05-05T06:18:09.212Z,12.61
2023-05-05T06:20:34.243Z,12.97
2023-05-05T06:22:57.909Z,12.75
2023-05-05T06:25:22.925Z,13.08
2023-05-05T06:27:47.636Z,13.75
2023-05-05T06:30:12.269Z,14.30
2023-05-05T06:32:36.143Z,14.89
2023-05-05T06:34:59.693Z,15.15
2023-05-05T06:37:24.824Z,15.49
2023-05-05T06:39:49.056Z,15.53
2023-05-05T06:42:12.724Z,14.68
2023-05-05T06:44:36.803Z,15.13
2023-05-05T06:47:00.536Z,15.24
2023-05-05T06:49:24.288Z,15.04
2023-05-05T06:51:48.012Z,15.72
2023-05-05T06:54:13.018Z,15.72
2023-05-05T06:56:36.590Z,16.24
2023-05-05T06:59:00.140Z,15.59
2023-05-05T07:01:23.796Z,15.42
2023-05-05T07:03:47.396Z,16.10
2023-05-05T07:06:11.408Z,15.16
2023-05-05T07:08:34.987Z,15.19
2023-05-05T07:11:01.082Z,15.61
2023-05-05T07:13:24.602Z,15.41
2023-05-05T07:15:48.290Z,15.21
2023-05-05T07:18:11.820Z,15.69
2023-05-05T07:20:35.501Z,15.43
2023-05-05T07:22:59.021Z,15.69
2023-05-05T07:25:23.077Z,15.27
2023-05-05T07:27:48.092Z,15.08
2023-05-05T07:30:16.276Z,15.71
2023-05-05T07:32:41.807Z,15.65
2023-05-05T07:35:05.954Z,15.62
2023-05-05T07:37:29.509Z,16.48
2023-05-05T07:39:53.080Z,16.28
2023-05-05T07:42:16.690Z,16.19
2023-05-05T07:44:41.707Z,15.72
2023-05-05T07:47:05.321Z,16.11
2023-05-05T07:49:28.910Z,15.90
2023-05-05T07:51:52.969Z,15.64
2023-05-05T07:54:16.562Z,16.54
2023-05-05T07:56:40.144Z,16.48
2023-05-05T07:59:03.748Z,16.23
2023-05-05T08:01:28.699Z,16.62
2023-05-05T08:03:52.410Z,16.50
2023-05-05T08:06:21.807Z,16.53
2023-05-05T08:08:45.402Z,16.82
2023-05-05T08:11:08.971Z,16.63
2023-05-05T08:13:32.612Z,16.42
2023-05-05T08:15:56.197Z,16.40
2023-05-05T08:18:21.189Z,16.90
2023-05-05T08:20:44.965Z,16.46
2023-05-05T08:23:08.510Z,16.86
2023-05-05T08:25:32.051Z,17.02
2023-05-05T08:27:55.700Z,16.71
2023-05-05T08:30:20.951Z,16.64
2023-05-05T08:32:44.500Z,16.49
2023-05-05T08:35:10.797Z,16.66
2023-05-05T08:37:34.611Z,16.63
2023-05-05T08:39:58.566Z,17.24
2023-05-05T08:42:35.517Z,16.94
2023-05-05T08:45:00.467Z,17.00
2023-05-05T08:47:24.143Z,17.31
2023-05-05T08:49:48.732Z,16.89
2023-05-05T08:52:17.289Z,17.29
2023-05-05T08:54:46.924Z,17.20
2023-05-05T08:57:13.068Z,17.36
2023-05-05T08:59:38.488Z,17.10
2023-05-05T09:02:02.890Z,17.27
2023-05-05T09:04:26.852Z,17.50
2023-05-05T09:06:50.814Z,16.85
2023-05-05T09:09:16.645Z,17.74
2023-05-05T09:11:41.203Z,17.97
2023-05-05T09:14:04.803Z,17.91
2023-05-05T09:16:28.409Z,18.04
2023-05-05T09:18:52.007Z,18.06
2023-05-05T09:21:23.101Z,17.99
2023-05-05T09:24:08.522Z,17.89
2023-05-05T09:26:35.465Z,17.54
2023-05-05T09:28:59.116Z,17.99
2023-05-05T09:31:22.862Z,18.17
2023-05-05T09:33:47.502Z,18.79
2023-05-05T09:36:12.267Z,18.94
2023-05-05T09:38:37.469Z,18.95
2023-05-05T09:41:01.633Z,18.81
2023-05-05T09:43:27.128Z,18.93
2023-05-05T09:45:51.935Z,19.71
2023-05-05T09:48:26.856Z,19.28
2023-05-05T09:50:50.622Z,18.70
2023-05-05T09:53:14.249Z,19.02
2023-05-05T09:55:38.129Z,19.17
2023-05-05T09:58:19.898Z,19.56
2023-05-05T10:00:45.980Z,19.66
2023-05-05T10:03:09.581Z,20.08
2023-05-05T10:05:33.409Z,19.65
2023-05-05T10:07:56.975Z,19.48
2023-05-05T10:10:20.508Z,19.88
2023-05-05T10:12:44.499Z,20.40
2023-05-05T10:15:10.164Z,19.97
2023-05-05T10:17:38.675Z,19.06
2023-05-05T10:20:04.018Z,20.00
2023-05-05T10:22:30.388Z,20.39
2023-05-05T10:25:01.247Z,20.09
2023-05-05T10:27:26.192Z,20.00
2023-05-05T10:29:58.147Z,20.34
2023-05-05T10:32:53.245Z,20.74
2023-05-05T10:35:19.588Z,20.15
2023-05-05T10:37:43.868Z,21.02
2023-05-05T10:40:10.514Z,19.68
2023-05-05T10:42:34.533Z,20.60
2023-05-05T10:44:58.159Z,21.10
2023-05-05T10:47:23.788Z,21.02
2023-05-05T10:49:54.508Z,20.36
2023-05-05T10:52:30.333Z,20.60
2023-05-05T10:55:03.376Z,20.84
2023-05-05T10:57:30.314Z,21.48
2023-05-05T10:59:53.817Z,21.61
2023-05-05T11:02:26.112Z,21.15
2023-05-05T11:05:15.388Z,20.96
2023-05-05T11:07:40.856Z,21.07
2023-05-05T11:10:06.259Z,21.76
2023-05-05T11:12:30.713Z,22.17
2023-05-05T11:15:37.483Z,21.59
2023-05-05T11:18:05.795Z,21.65
2023-05-05T11:21:15.717Z,22.53
2023-05-05T11:23:40.898Z,22.16
2023-05-05T11:26:04.447Z,20.40
2023-05-05T11:28:31.175Z,21.56
2023-05-05T11:31:21.765Z,21.55
2023-05-05T11:33:45.987Z,21.27
2023-05-05T11:36:10.743Z,21.19
2023-05-05T11:39:10.273Z,21.64
2023-05-05T11:42:07.241Z,21.04
2023-05-05T11:44:35.758Z,21.37
2023-05-05T11:47:39.010Z,21.56
2023-05-05T11:50:21.769Z,21.27
2023-05-05T11:52:45.374Z,21.76
2023-05-05T11:55:11.683Z,21.76
2023-05-05T11:57:35.354Z,21.32
2023-05-05T12:00:02.220Z,21.65
2023-05-05T12:02:29.731Z,21.94
2023-05-05T12:04:53.903Z,21.51
2023-05-05T12:07:18.077Z,22.11
2023-05-05T12:09:45.150Z,22.04
2023-05-05T12:12:10.335Z,22.28
2023-05-05T12:14:34.686Z,21.63
2023-05-05T12:16:59.100Z,22.12
2023-05-05T12:19:23.010Z,21.82
2023-05-05T12:21:47.329Z,22.02
2023-05-05T12:24:15.174Z,22.73
2023-05-05T12:26:38.816Z,22.23
2023-05-05T12:29:03.723Z,22.65
2023-05-05T12:31:37.070Z,22.12
2023-05-05T12:34:00.741Z,22.40
2023-05-05T12:36:24.291Z,22.74
2023-05-05T12:38:47.866Z,22.89
2023-05-05T12:41:11.467Z,22.67
2023-05-05T12:43:36.408Z,22.19
2023-05-05T12:46:08.295Z,22.96
2023-05-05T12:48:32.177Z,23.09
2023-05-05T12:50:55.976Z,22.43
2023-05-05T12:53:23.011Z,21.63
2023-05-05T12:55:46.808Z,21.87
2023-05-05T12:58:10.513Z,22.71
2023-05-05T13:00:34.341Z,22.31
2023-05-05T13:02:59.412Z,22.10
2023-05-05T13:05:32.707Z,22.27
2023-05-05T13:07:56.536Z,22.09
2023-05-05T13:10:20.162Z,22.02
2023-05-05T13:12:43.749Z,22.10
2023-05-05T13:15:09.157Z,22.35
2023-05-05T13:17:34.771Z,22.19
2023-05-05T13:19:59.891Z,21.90
2023-05-05T13:22:23.470Z,21.46
2023-05-05T13:24:51.859Z,22.12
2023-05-05T13:27:16.444Z,22.47
2023-05-05T13:29:41.560Z,22.16
2023-05-05T13:32:05.730Z,22.34
2023-05-05T13:34:29.406Z,22.10
2023-05-05T13:36:54.390Z,22.24
2023-05-05T13:39:17.919Z,22.46
2023-05-05T13:41:41.596Z,22.31
2023-05-05T13:44:05.236Z,21.88
2023-05-05T13:46:29.110Z,22.02
2023-05-05T13:48:56.378Z,22.49
2023-05-05T13:51:20.841Z,22.51
2023-05-05T13:53:46.021Z,22.05
2023-05-05T13:56:10.154Z,22.28
2023-05-05T13:58:34.512Z,22.81
2023-05-05T14:00:58.990Z,22.67
2023-05-05T14:03:23.855Z,22.85
2023-05-05T14:05:47.477Z,21.94
2023-05-05T14:08:11.700Z,21.93
2023-05-05T14:10:36.718Z,21.97
2023-05-05T14:13:00.395Z,21.73
2023-05-05T14:15:24.153Z,21.97
2023-05-05T14:17:47.714Z,21.30
2023-05-05T14:20:12.841Z,21.10
2023-05-05T14:22:36.526Z,21.51
2023-05-05T14:25:00.166Z,21.88
2023-05-05T14:27:25.295Z,21.89
2023-05-05T14:29:49.196Z,21.76
2023-05-05T14:32:12.820Z,21.45
2023-05-05T14:34:36.666Z,21.28
2023-05-05T14:37:00.222Z,22.03
2023-05-05T14:39:23.870Z,22.32
2023-05-05T14:41:47.618Z,22.14
2023-05-05T14:44:12.600Z,21.95
2023-05-05T14:46:36.452Z,21.68
2023-05-05T14:49:00.153Z,21.76
2023-05-05T14:51:23.840Z,21.12
2023-05-05T14:53:47.728Z,20.78
2023-05-05T14:56:11.288Z,20.68
2023-05-05T14:58:34.954Z,20.63
2023-05-05T15:01:00.573Z,20.53
2023-05-05T15:03:24.643Z,20.70
2023-05-05T15:05:48.485Z,21.03
2023-05-05T15:08:12.519Z,20.30
2023-05-05T15:10:36.117Z,21.09
2023-05-05T15:12:59.789Z,20.40
2023-05-05T15:15:23.390Z,20.41
2023-05-05T15:17:48.471Z,20.83
2023-05-05T15:20:13.254Z,20.88
2023-05-05T15:22:37.983Z,20.47
2023-05-05T15:25:01.765Z,20.96
2023-05-05T15:27:25.406Z,21.00
2023-05-05T15:29:49.082Z,20.83
2023-05-05T15:32:12.651Z,20.26
2023-05-05T15:34:37.776Z,20.04
2023-05-05T15:37:01.331Z,20.21
2023-05-05T15:39:24.838Z,19.94
2023-05-05T15:41:48.491Z,19.69
2023-05-05T15:44:13.617Z,19.61
2023-05-05T15:46:37.282Z,19.66
2023-05-05T15:49:01.120Z,19.48
2023-05-05T15:51:26.254Z,19.37
2023-05-05T15:53:49.866Z,19.37
2023-05-05T15:56:13.439Z,19.56
2023-05-05T15:58:37.228Z,19.53
2023-05-05T16:01:00.868Z,19.19
2023-05-05T16:03:24.606Z,19.40
2023-05-05T16:05:48.381Z,19.28
2023-05-05T16:08:13.875Z,19.42
2023-05-05T16:10:37.776Z,18.86
2023-05-05T16:13:01.432Z,18.67
2023-05-05T16:15:25.372Z,18.67
2023-05-05T16:17:49.119Z,18.81
2023-05-05T16:20:13.877Z,18.58
2023-05-05T16:22:37.596Z,18.30
2023-05-05T16:25:02.732Z,18.56
2023-05-05T16:27:27.053Z,18.32
2023-05-05T16:29:51.184Z,18.42
2023-05-05T16:32:14.879Z,18.45
2023-05-05T16:34:38.436Z,18.63
2023-05-05T16:37:02.034Z,18.72
2023-05-05T16:39:26.315Z,18.57
2023-05-05T16:41:51.220Z,18.66
2023-05-05T16:44:14.788Z,18.50
2023-05-05T16:46:40.120Z,18.27
2023-05-05T16:49:03.922Z,18.30
2023-05-05T16:51:28.968Z,18.24
2023-05-05T16:53:52.994Z,18.39
2023-05-05T16:56:16.670Z,18.23
2023-05-05T16:58:41.993Z,18.46
2023-05-05T17:01:05.701Z,18.31
2023-05-05T17:03:29.325Z,18.15
2023-05-05T17:05:54.677Z,18.05
2023-05-05T17:08:18.385Z,17.91
2023-05-05T17:10:42.186Z,18.05
2023-05-05T17:13:05.877Z,18.11
2023-05-05T17:15:30.856Z,17.90
2023-05-05T17:17:54.697Z,17.84
2023-05-05T17:20:18.258Z,17.98
2023-05-05T17:22:41.818Z,17.71
2023-05-05T17:25:06.315Z,17.37
2023-05-05T17:27:29.954Z,17.68
2023-05-05T17:29:54.596Z,17.62
2023-05-05T17:32:19.584Z,17.46
2023-05-05T17:34:43.112Z,17.49
2023-05-05T17:37:06.684Z,17.52
2023-05-05T17:39:31.019Z,17.51
2023-05-05T17:41:54.799Z,17.26
2023-05-05T17:44:18.351Z,17.50
2023-05-05T17:46:41.978Z,17.36
2023-05-05T17:49:06.948Z,17.34
2023-05-05T17:51:31.407Z,17.15
2023-05-05T17:53:54.975Z,16.96
2023-05-05T17:56:18.636Z,17.01
2023-05-05T17:58:42.161Z,17.04
2023-05-05T18:01:06.300Z,16.88
2023-05-05T18:03:30.085Z,16.72
2023-05-05T18:05:55.312Z,16.93
2023-05-05T18:08:19.552Z,16.83
2023-05-05T18:10:43.346Z,16.67
2023-05-05T18:13:06.923Z,16.80
2023-05-05T18:15:31.452Z,16.66
2023-05-05T18:17:54.987Z,16.60
2023-05-05T18:20:18.935Z,16.48
2023-05-05T18:22:43.823Z,16.36
2023-05-05T18:25:10.165Z,16.53
2023-05-05T18:27:35.939Z,16.61
2023-05-05T18:29:59.841Z,16.40
2023-05-05T18:32:23.864Z,16.38
2023-05-05T18:34:47.627Z,16.53
2023-05-05T18:37:11.219Z,16.34
2023-05-05T18:39:36.227Z,16.19
2023-05-05T18:41:59.813Z,16.08
2023-05-05T18:44:23.462Z,15.94
2023-05-05T18:46:47.246Z,16.21
2023-05-05T18:49:10.984Z,15.90
2023-05-05T18:51:34.517Z,15.96
2023-05-05T18:53:58.123Z,15.93
2023-05-05T18:56:23.061Z,15.83
2023-05-05T18:58:46.730Z,15.81
2023-05-05T19:01:10.247Z,15.80
2023-05-05T19:03:34.909Z,15.66
2023-05-05T19:05:58.531Z,15.77
2023-05-05T19:08:22.666Z,15.87
2023-05-05T19:10:46.927Z,15.48
2023-05-05T19:13:12.054Z,15.45
2023-05-05T19:15:35.733Z,15.61
2023-05-05T19:18:00.722Z,15.19
2023-05-05T19:20:24.428Z,15.17
2023-05-05T19:22:48.990Z,14.91
2023-05-05T19:25:14.324Z,15.23
2023-05-05T19:27:37.986Z,14.69
2023-05-05T19:30:02.957Z,14.83
2023-05-05T19:32:26.999Z,14.74
2023-05-05T19:34:54.142Z,14.89
2023-05-05T19:37:17.816Z,14.72
2023-05-05T19:39:43.133Z,14.91
2023-05-05T19:42:07.034Z,14.72
2023-05-05T19:44:30.705Z,14.85
2023-05-05T19:46:55.830Z,14.65
2023-05-05T19:49:19.319Z,14.64
2023-05-05T19:51:43.771Z,14.49
2023-05-05T19:54:07.429Z,14.47
2023-05-05T19:56:32.478Z,14.48
2023-05-05T19:59:03.629Z,14.48
2023-05-05T20:01:29.400Z,14.41
2023-05-05T20:03:58.060Z,14.46
2023-05-05T20:06:23.667Z,14.35
2023-05-05T20:08:47.434Z,14.33
2023-05-05T20:11:11.270Z,14.35
2023-05-05T20:13:38.087Z,14.22
2023-05-05T20:16:02.071Z,14.31
2023-05-05T20:18:25.678Z,14.31
2023-05-05T20:20:51.181Z,13.96
2023-05-05T20:23:14.815Z,14.06
2023-05-05T20:25:38.708Z,14.20
2023-05-05T20:28:02.272Z,13.91
2023-05-05T20:30:26.003Z,14.20
2023-05-05T20:32:49.554Z,13.96
2023-05-05T20:35:13.284Z,14.04
2023-05-05T20:37:38.218Z,13.95
2023-05-05T20:40:01.917Z,13.85
2023-05-05T20:42:25.961Z,13.83
2023-05-05T20:44:49.573Z,13.90
2023-05-05T20:47:13.182Z,14.03
2023-05-05T20:49:37.047Z,13.68
2023-05-05T20:52:00.603Z,13.70
2023-05-05T20:54:25.670Z,13.82
2023-05-05T20:56:49.232Z,13.53
2023-05-05T20:59:12.928Z,13.83
2023-05-05T21:01:36.525Z,13.35
2023-05-05T21:04:00.390Z,13.39
2023-05-05T21:06:24.374Z,13.73
2023-05-05T21:08:48.253Z,13.35
2023-05-05T21:11:13.230Z,13.55
2023-05-05T21:13:37.219Z,13.73
2023-05-05T21:16:00.720Z,13.70
2023-05-05T21:18:25.799Z,13.62
2023-05-05T21:20:49.299Z,13.60
2023-05-05T21:23:12.933Z,13.20
2023-05-05T21:25:37.481Z,13.55
2023-05-05T21:28:02.467Z,13.43
2023-05-05T21:30:26.169Z,13.44
2023-05-05T21:32:50.340Z,13.47
2023-05-05T21:35:14.181Z,13.67
2023-05-05T21:37:40.026Z,13.62
2023-05-05T21:40:03.756Z,13.83
2023-05-05T21:42:27.948Z,13.65
2023-05-05T21:44:52.879Z,13.72
2023-05-05T21:47:16.516Z,13.75
2023-05-05T21:49:41.050Z,13.52
2023-05-05T21:52:04.805Z,13.47
2023-05-05T21:54:28.408Z,13.53
2023-05-05T21:56:51.951Z,13.66
2023-05-05T21:59:17.095Z,13.52
2023-05-05T22:01:42.463Z,13.50
2023-05-05T22:04:06.227Z,13.44
2023-05-05T22:06:29.900Z,13.54
2023-05-05T22:08:53.433Z,13.24
2023-05-05T22:11:17.642Z,13.32
2023-05-05T22:13:41.429Z,12.93
2023-05-05T22:16:05.168Z,12.90
2023-05-05T22:18:30.123Z,12.67
2023-05-05T22:20:53.839Z,12.74
2023-05-05T22:23:17.414Z,12.66
2023-05-05T22:25:41.148Z,13.08
2023-05-05T22:28:05.128Z,12.80
2023-05-05T22:30:28.998Z,12.48
2023-05-05T22:32:52.527Z,12.73
2023-05-05T22:35:17.782Z,12.64
2023-05-05T22:37:42.320Z,12.70
2023-05-05T22:40:09.645Z,12.43
2023-05-05T22:42:33.256Z,12.46
2023-05-05T22:44:56.825Z,12.48
2023-05-05T22:47:20.498Z,12.34
2023-05-05T22:49:44.216Z,12.51
2023-05-05T22:52:09.202Z,12.08
2023-05-05T22:54:32.903Z,12.24
2023-05-05T22:56:56.558Z,12.23
2023-05-05T22:59:20.173Z,12.20
2023-05-05T23:01:43.783Z,12.11
2023-05-05T23:04:07.579Z,11.95
2023-05-05T23:06:32.211Z,12.20
2023-05-05T23:08:58.377Z,11.94
2023-05-05T23:11:22.005Z,11.97
2023-05-05T23:13:45.704Z,11.82
2023-05-05T23:16:09.648Z,11.77
2023-05-05T23:18:33.481Z,11.77
2023-05-05T23:20:56.999Z,11.69
2023-05-05T23:23:20.572Z,11.67
2023-05-05T23:25:46.093Z,11.70
2023-05-05T23:28:09.960Z,11.69
2023-05-05T23:30:33.650Z,11.36
2023-05-05T23:32:58.288Z,11.52
2023-05-05T23:35:22.495Z,11.46
2023-05-05T23:37:46.228Z,11.52
2023-05-05T23:40:11.049Z,11.43
2023-05-05T23:42:36.086Z,11.45
2023-05-05T23:44:59.610Z,11.41
2023-05-05T23:47:23.316Z,11.39
2023-05-05T23:49:46.906Z,11.24
2023-05-05T23:52:10.492Z,11.39
2023-05-05T23:54:34.016Z,11.34
2023-05-05T23:56:58.746Z,11.30
2023-05-05T23:59:23.659Z,11.14
